Time;durP1;ratioP1;P1;durP2;ratioP2;P2;SDS_P1;SDS_P2;PMS_P1;PMS_P2;Temp;Humidity;BMP_temperature;BMP_pressure;BME280_temperature;BME280_humidity;BME280_pressure;Samples;Min_cycle;Max_cycle;Signal;HPM_P1;HPM_P2
2022/12/09 00:02:21;;;;;;;;;;;-3.00;99.90;;;;;;4957738;28;19922;-70
2022/12/09 00:04:47;;;;;;;;;;;-3.00;99.90;;;;;;4958576;28;19970;-70
2022/12/09 00:07:12;;;;;;;;;;;-3.00;99.90;;;;;;4952397;28;20089;-70
2022/12/09 00:09:38;;;;;;;;;;;-3.00;99.90;;;;;;4949725;28;19930;-70
2022/12/09 00:12:03;;;;;;;;;;;-3.00;99.90;;;;;;4950542;28;19993;-70
2022/12/09 00:14:29;;;;;;;;;;;-3.00;99.90;;;;;;4968004;28;20020;-70
2022/12/09 00:16:55;;;;;;;;;;;-3.00;99.90;;;;;;4954289;28;19927;-70
2022/12/09 00:19:20;;;;;;;;;;;-3.10;99.90;;;;;;4944951;28;19937;-69
2022/12/09 00:21:46;;;;;;;;;;;-3.10;99.90;;;;;;4962924;28;19922;-70
2022/12/09 00:24:12;;;;;;;;;;;-3.10;99.90;;;;;;4944936;28;20506;-70
2022/12/09 00:26:37;;;;;;;;;;;-3.10;99.90;;;;;;4953993;28;19930;-70
2022/12/09 00:29:03;;;;;;;;;;;-3.20;99.90;;;;;;4933496;29;19933;-70
2022/12/09 00:31:31;;;;;;;;;;;-3.20;99.90;;;;;;4955930;28;19938;-70
2022/12/09 00:33:58;;;;;;;;;;;-3.20;99.90;;;;;;4950820;28;19952;-70
2022/12/09 00:36:23;;;;;;;;;;;-3.30;99.90;;;;;;4964747;28;20410;-70
2022/12/09 00:38:49;;;;;;;;;;;-3.30;99.90;;;;;;4941166;28;20038;-70
2022/12/09 00:41:16;;;;;;;;;;;-3.30;99.90;;;;;;4939201;28;19973;-70
2022/12/09 00:43:42;;;;;;;;;;;-3.40;99.90;;;;;;4950154;28;20375;-70
2022/12/09 00:46:08;;;;;;;;;;;-3.40;99.90;;;;;;4951461;28;19953;-70
2022/12/09 00:48:36;;;;;;;;;;;-3.40;99.90;;;;;;4950358;28;19965;-70
2022/12/09 00:51:01;;;;;;;;;;;-3.40;99.90;;;;;;4951255;28;19923;-70
2022/12/09 00:53:27;;;;;;;;;;;-3.50;99.90;;;;;;4950297;28;20421;-70
2022/12/09 00:55:52;;;;;;;;;;;-3.50;99.90;;;;;;4952156;28;19926;-70
2022/12/09 00:58:18;;;;;;;;;;;-3.50;99.90;;;;;;4950625;28;19927;-70
2022/12/09 01:00:43;;;;;;;;;;;-3.60;99.90;;;;;;4950448;28;19931;-69
2022/12/09 01:03:13;;;;;;;;;;;-3.60;99.90;;;;;;4967137;28;19922;-69
2022/12/09 01:05:38;;;;;;;;;;;-3.60;99.90;;;;;;4946474;28;20449;-69
2022/12/09 01:08:04;;;;;;;;;;;-3.60;99.90;;;;;;4933177;29;19927;-69
2022/12/09 01:10:31;;;;;;;;;;;-3.50;99.90;;;;;;4962091;28;20006;-69
2022/12/09 01:12:57;;;;;;;;;;;-3.50;99.90;;;;;;4942599;28;19954;-69
2022/12/09 01:15:22;;;;;;;;;;;-3.50;99.90;;;;;;4933042;28;19922;-69
2022/12/09 01:17:48;;;;;;;;;;;-3.50;99.90;;;;;;4931718;28;20432;-70
2022/12/09 01:20:13;;;;;;;;;;;-3.60;99.90;;;;;;4928352;28;20665;-70
2022/12/09 01:22:39;;;;;;;;;;;-3.60;99.90;;;;;;4949241;28;19927;-70
2022/12/09 01:25:05;;;;;;;;;;;-3.60;99.90;;;;;;4952769;28;19926;-70
2022/12/09 01:27:31;;;;;;;;;;;-3.50;99.90;;;;;;4948260;28;19922;-70
2022/12/09 01:29:56;;;;;;;;;;;-3.50;99.90;;;;;;4960890;28;20624;-70
2022/12/09 01:32:22;;;;;;;;;;;-3.50;99.90;;;;;;4947922;28;19926;-70
2022/12/09 01:34:47;;;;;;;;;;;-3.50;99.90;;;;;;4943786;28;19997;-70
2022/12/09 01:37:13;;;;;;;;;;;-3.50;99.90;;;;;;4948549;28;19957;-70
2022/12/09 01:39:39;;;;;;;;;;;-3.50;99.90;;;;;;4948873;28;19926;-70
2022/12/09 01:42:05;;;;;;;;;;;-3.60;99.90;;;;;;4947496;28;19922;-70
2022/12/09 01:44:31;;;;;;;;;;;-3.60;99.90;;;;;;4948192;28;19926;-70
2022/12/09 01:46:58;;;;;;;;;;;-3.70;99.90;;;;;;4948211;28;20013;-70
2022/12/09 01:49:27;;;;;;;;;;;-3.70;99.90;;;;;;4948420;28;19930;-70
2022/12/09 01:52:06;;;;;;;;;;;-3.70;99.90;;;;;;4946989;28;19926;-69
2022/12/09 01:54:32;;;;;;;;;;;-3.70;99.90;;;;;;4947461;28;19929;-69
2022/12/09 01:56:58;;;;;;;;;;;-3.80;99.90;;;;;;4947638;28;20361;-69
2022/12/09 01:59:24;;;;;;;;;;;-3.80;99.90;;;;;;4935075;28;19923;-69
2022/12/09 02:01:53;;;;;;;;;;;-3.80;99.90;;;;;;4953544;28;19981;-69
2022/12/09 02:04:19;;;;;;;;;;;-3.80;99.90;;;;;;4956106;28;20398;-69
2022/12/09 02:06:44;;;;;;;;;;;-3.80;99.90;;;;;;4955165;28;20013;-69
2022/12/09 02:09:10;;;;;;;;;;;-3.80;99.90;;;;;;4958266;28;19922;-69
2022/12/09 02:11:38;;;;;;;;;;;-3.80;99.90;;;;;;4946287;28;20359;-69
2022/12/09 02:14:07;;;;;;;;;;;-3.90;99.90;;;;;;4959641;28;19973;-69
2022/12/09 02:16:36;;;;;;;;;;;-3.90;99.90;;;;;;4956146;28;20363;-69
2022/12/09 02:19:08;;;;;;;;;;;-3.90;99.90;;;;;;4959959;28;20329;-69
2022/12/09 02:21:40;;;;;;;;;;;-3.90;99.90;;;;;;4937911;28;19949;-69
2022/12/09 02:24:09;;;;;;;;;;;-3.90;99.90;;;;;;4956890;28;20391;-69
2022/12/09 02:26:47;;;;;;;;;;;-3.90;99.90;;;;;;4954662;28;19922;-69
2022/12/09 02:29:28;;;;;;;;;;;-3.80;99.90;;;;;;4954283;28;19925;-70
2022/12/09 02:32:00;;;;;;;;;;;-3.80;99.90;;;;;;4947672;28;19978;-70
2022/12/09 02:34:27;;;;;;;;;;;-3.80;99.90;;;;;;4947230;28;19922;-69
2022/12/09 02:37:09;;;;;;;;;;;-3.80;99.90;;;;;;4947233;28;19930;-69
2022/12/09 02:39:42;;;;;;;;;;;-3.70;99.90;;;;;;4948212;28;19922;-69
2022/12/09 02:42:09;;;;;;;;;;;-3.60;99.90;;;;;;4947740;28;19949;-69
2022/12/09 02:44:36;;;;;;;;;;;-3.60;99.90;;;;;;4932326;28;19930;-69
2022/12/09 02:47:03;;;;;;;;;;;-3.50;99.90;;;;;;4931834;28;19929;-70
2022/12/09 02:49:29;;;;;;;;;;;-3.50;99.90;;;;;;4931854;28;19922;-70
2022/12/09 02:51:56;;;;;;;;;;;-3.50;99.90;;;;;;4946945;28;19949;-70
2022/12/09 02:54:23;;;;;;;;;;;-3.50;99.90;;;;;;4949020;28;20024;-70
2022/12/09 02:56:51;;;;;;;;;;;-3.50;99.90;;;;;;4941546;28;19927;-70
2022/12/09 02:59:17;;;;;;;;;;;-3.50;99.90;;;;;;4948936;28;19945;-70
2022/12/09 03:02:01;;;;;;;;;;;-3.50;99.90;;;;;;4946762;28;20328;-70
2022/12/09 03:04:28;;;;;;;;;;;-3.50;99.90;;;;;;4963075;28;20040;-70
2022/12/09 03:06:55;;;;;;;;;;;-3.50;99.90;;;;;;4965803;28;19956;-70
2022/12/09 03:09:32;;;;;;;;;;;-3.40;99.90;;;;;;4953721;28;20306;-70
2022/12/09 03:12:00;;;;;;;;;;;-3.40;99.90;;;;;;4958573;28;19930;-70
2022/12/09 03:14:34;;;;;;;;;;;-3.40;99.90;;;;;;4940616;28;19922;-70
2022/12/09 03:17:03;;;;;;;;;;;-3.40;99.90;;;;;;4947691;28;19922;-70
2022/12/09 03:19:49;;;;;;;;;;;-3.30;99.90;;;;;;4957485;28;20379;-70
2022/12/09 03:22:16;;;;;;;;;;;-3.30;99.90;;;;;;4957126;28;19960;-70
2022/12/09 03:24:57;;;;;;;;;;;-3.30;99.90;;;;;;4960203;28;20179;-70
2022/12/09 03:27:55;;;;;;;;;;;-3.30;99.90;;;;;;4946108;28;19981;-70
2022/12/09 03:30:21;;;;;;;;;;;-3.30;99.90;;;;;;4944701;28;19933;-70
2022/12/09 03:32:47;;;;;;;;;;;-3.30;99.90;;;;;;4953807;28;20307;-70
2022/12/09 03:35:39;;;;;;;;;;;-3.30;99.90;;;;;;4959377;28;20044;-70
2022/12/09 03:38:05;;;;;;;;;;;-3.30;99.90;;;;;;4957353;28;19926;-70
2022/12/09 03:40:31;;;;;;;;;;;-3.30;99.90;;;;;;4953328;28;19933;-70
2022/12/09 03:42:59;;;;;;;;;;;-3.30;99.90;;;;;;4959990;28;20475;-70
2022/12/09 03:45:25;;;;;;;;;;;-3.30;99.90;;;;;;4949930;28;20036;-70
2022/12/09 03:47:51;;;;;;;;;;;-3.30;99.90;;;;;;4945005;28;20025;-70
2022/12/09 03:50:17;;;;;;;;;;;-3.30;99.90;;;;;;4963143;28;20394;-70
2022/12/09 03:52:44;;;;;;;;;;;-3.30;99.90;;;;;;4968643;28;20526;-70
2022/12/09 03:55:13;;;;;;;;;;;-3.40;99.90;;;;;;4969658;28;20371;-70
2022/12/09 03:57:41;;;;;;;;;;;-3.40;99.90;;;;;;4963839;28;19922;-70
2022/12/09 04:00:07;;;;;;;;;;;-3.40;99.90;;;;;;4955875;28;19980;-70
2022/12/09 04:02:33;;;;;;;;;;;-3.40;99.90;;;;;;4946612;28;20427;-70
2022/12/09 04:04:58;;;;;;;;;;;-3.50;99.90;;;;;;4962993;28;19922;-70
2022/12/09 04:07:25;;;;;;;;;;;-3.50;99.90;;;;;;4966523;28;19934;-70
2022/12/09 04:09:50;;;;;;;;;;;-3.50;99.90;;;;;;4939437;29;19923;-70
2022/12/09 04:12:16;;;;;;;;;;;-3.50;99.90;;;;;;4951496;28;20403;-70
2022/12/09 04:14:41;;;;;;;;;;;-3.40;99.90;;;;;;4942274;28;19957;-70
2022/12/09 04:17:08;;;;;;;;;;;-3.40;99.90;;;;;;4958305;28;19926;-70
2022/12/09 04:19:34;;;;;;;;;;;-3.40;99.90;;;;;;4942585;28;19937;-70
2022/12/09 04:21:59;;;;;;;;;;;-3.40;99.90;;;;;;4948675;28;20382;-70
2022/12/09 04:24:25;;;;;;;;;;;-3.30;99.90;;;;;;4939903;28;19926;-70
2022/12/09 04:26:50;;;;;;;;;;;-3.30;99.90;;;;;;4942920;28;20101;-70
2022/12/09 04:29:16;;;;;;;;;;;-3.30;99.90;;;;;;4929941;28;20421;-70
2022/12/09 04:31:41;;;;;;;;;;;-3.30;99.90;;;;;;4957736;28;19948;-70
2022/12/09 04:34:07;;;;;;;;;;;-3.30;99.90;;;;;;4949336;28;19931;-70
2022/12/09 04:36:32;;;;;;;;;;;-3.30;99.90;;;;;;4949583;28;20096;-70
2022/12/09 04:38:58;;;;;;;;;;;-3.40;99.90;;;;;;4940203;28;19922;-70
2022/12/09 04:41:24;;;;;;;;;;;-3.40;99.90;;;;;;4951503;28;19929;-70
2022/12/09 04:43:49;;;;;;;;;;;-3.40;99.90;;;;;;4942965;28;19930;-70
2022/12/09 04:46:16;;;;;;;;;;;-3.40;99.90;;;;;;4948958;28;20072;-70
2022/12/09 04:48:42;;;;;;;;;;;-3.40;99.90;;;;;;4959932;28;19933;-70
2022/12/09 04:51:08;;;;;;;;;;;-3.40;99.90;;;;;;4947823;28;19927;-70
2022/12/09 04:53:34;;;;;;;;;;;-3.50;99.90;;;;;;4952567;28;20088;-70
2022/12/09 04:56:00;;;;;;;;;;;-3.50;99.90;;;;;;4952179;28;20597;-70
2022/12/09 04:58:26;;;;;;;;;;;-3.50;99.90;;;;;;4953041;28;20375;-70
2022/12/09 05:00:51;;;;;;;;;;;-3.50;99.90;;;;;;4962140;28;19925;-70
2022/12/09 05:03:17;;;;;;;;;;;-3.50;99.90;;;;;;4962222;28;19930;-70
2022/12/09 05:05:43;;;;;;;;;;;-3.50;99.90;;;;;;4962140;28;19926;-70
2022/12/09 05:08:08;;;;;;;;;;;-3.50;99.90;;;;;;4935685;28;19958;-70
2022/12/09 05:10:34;;;;;;;;;;;-3.50;99.90;;;;;;4949521;28;20314;-70
2022/12/09 05:12:59;;;;;;;;;;;-3.50;99.90;;;;;;4957645;28;19937;-70
2022/12/09 05:15:25;;;;;;;;;;;-3.50;99.90;;;;;;4950090;28;19923;-70
2022/12/09 05:17:51;;;;;;;;;;;-3.50;99.90;;;;;;4956575;28;19926;-69
2022/12/09 05:20:16;;;;;;;;;;;-3.40;99.90;;;;;;4955124;28;19923;-69
2022/12/09 05:22:42;;;;;;;;;;;-3.40;99.90;;;;;;4935864;28;19926;-69
2022/12/09 05:25:07;;;;;;;;;;;-3.40;99.90;;;;;;4938576;28;19934;-69
2022/12/09 05:27:33;;;;;;;;;;;-3.40;99.90;;;;;;4956338;28;19933;-69
2022/12/09 05:29:59;;;;;;;;;;;-3.50;99.90;;;;;;4959225;28;20013;-69
2022/12/09 05:32:27;;;;;;;;;;;-3.50;99.90;;;;;;4948575;28;19934;-69
2022/12/09 05:34:53;;;;;;;;;;;-3.60;99.90;;;;;;4941040;29;19922;-69
2022/12/09 05:37:19;;;;;;;;;;;-3.60;99.90;;;;;;4947715;28;20405;-69
2022/12/09 05:39:44;;;;;;;;;;;-3.60;99.90;;;;;;4952756;28;19927;-69
2022/12/09 05:42:10;;;;;;;;;;;-3.60;99.90;;;;;;4930586;28;19966;-69
2022/12/09 05:44:35;;;;;;;;;;;-3.60;99.90;;;;;;4946126;28;20422;-69
2022/12/09 05:47:01;;;;;;;;;;;-3.50;99.90;;;;;;4957412;28;19922;-69
2022/12/09 05:49:27;;;;;;;;;;;-3.50;99.90;;;;;;4955754;28;19977;-69
2022/12/09 05:51:52;;;;;;;;;;;-3.50;99.90;;;;;;4941036;28;20458;-69
2022/12/09 05:54:18;;;;;;;;;;;-3.50;99.90;;;;;;4956230;28;19937;-69
2022/12/09 05:56:44;;;;;;;;;;;-3.50;99.90;;;;;;4942248;28;19926;-70
2022/12/09 05:59:09;;;;;;;;;;;-3.50;99.90;;;;;;4958499;28;19926;-69
2022/12/09 06:01:35;;;;;;;;;;;-3.50;99.90;;;;;;4954858;28;20376;-69
2022/12/09 06:04:01;;;;;;;;;;;-3.50;99.90;;;;;;4899629;28;1791685;-70
2022/12/09 06:06:28;;;;;;;;;;;-3.50;99.90;;;;;;4955785;28;19930;-70
2022/12/09 06:08:56;;;;;;;;;;;-3.40;99.90;;;;;;4954849;28;19922;-70
2022/12/09 06:11:22;;;;;;;;;;;-3.50;99.90;;;;;;4936794;28;19930;-70
2022/12/09 06:13:47;;;;;;;;;;;-3.40;99.90;;;;;;4953196;28;19927;-69
2022/12/09 06:16:14;;;;;;;;;;;-3.40;99.90;;;;;;4933926;28;19930;-69
2022/12/09 06:18:39;;;;;;;;;;;-3.40;99.90;;;;;;4957632;28;20009;-69
2022/12/09 06:21:06;;;;;;;;;;;-3.30;99.90;;;;;;4934782;28;20298;-69
2022/12/09 06:23:33;;;;;;;;;;;-3.30;99.90;;;;;;4954492;28;19954;-69
2022/12/09 06:25:58;;;;;;;;;;;-3.20;99.90;;;;;;4951789;28;20000;-69
2022/12/09 06:28:24;;;;;;;;;;;-3.10;99.90;;;;;;4955205;28;19923;-70
2022/12/09 06:30:49;;;;;;;;;;;-3.10;99.90;;;;;;4963473;28;19962;-70
2022/12/09 06:33:15;;;;;;;;;;;-3.00;99.90;;;;;;4951559;28;20402;-70
2022/12/09 06:35:40;;;;;;;;;;;-3.00;99.90;;;;;;4963694;28;19937;-70
2022/12/09 06:38:06;;;;;;;;;;;-3.00;99.90;;;;;;4965507;28;20358;-70
2022/12/09 06:40:31;;;;;;;;;;;-3.00;99.90;;;;;;4981040;28;20456;-70
2022/12/09 06:42:57;;;;;;;;;;;-3.00;99.90;;;;;;4962993;28;19930;-70
2022/12/09 06:45:22;;;;;;;;;;;-3.00;99.90;;;;;;4963269;28;19928;-70
2022/12/09 06:47:48;;;;;;;;;;;-3.00;99.90;;;;;;4945151;28;19930;-70
2022/12/09 06:50:14;;;;;;;;;;;-3.00;99.90;;;;;;4948885;28;19926;-70
2022/12/09 06:52:39;;;;;;;;;;;-2.90;99.90;;;;;;4933861;28;19962;-70
2022/12/09 06:55:06;;;;;;;;;;;-2.90;99.90;;;;;;4942129;28;19922;-70
2022/12/09 06:57:31;;;;;;;;;;;-2.90;99.90;;;;;;4964189;28;19922;-70
2022/12/09 06:59:57;;;;;;;;;;;-2.80;99.90;;;;;;4954271;28;19937;-70
2022/12/09 07:02:23;;;;;;;;;;;-2.80;99.90;;;;;;4918948;28;19925;-70
2022/12/09 07:04:52;;;;;;;;;;;-2.70;99.90;;;;;;4956470;28;19970;-70
2022/12/09 07:07:17;;;;;;;;;;;-2.60;99.90;;;;;;4948542;28;19933;-70
2022/12/09 07:09:43;;;;;;;;;;;-2.60;99.90;;;;;;4940346;28;19931;-70
2022/12/09 07:12:09;;;;;;;;;;;-2.50;99.90;;;;;;4951962;28;19934;-70
2022/12/09 07:14:35;;;;;;;;;;;-2.50;99.90;;;;;;4952525;28;20416;-70
2022/12/09 07:17:01;;;;;;;;;;;-2.50;99.90;;;;;;4951914;28;19922;-70
2022/12/09 07:19:28;;;;;;;;;;;-2.50;99.90;;;;;;4949952;28;20619;-70
2022/12/09 07:21:54;;;;;;;;;;;-2.50;99.90;;;;;;4948750;28;20433;-70
2022/12/09 07:24:19;;;;;;;;;;;-2.50;99.90;;;;;;4977860;28;20012;-70
2022/12/09 07:26:45;;;;;;;;;;;-2.50;99.90;;;;;;4955470;28;19937;-70
2022/12/09 07:29:11;;;;;;;;;;;-2.50;99.90;;;;;;4972363;28;20398;-70
2022/12/09 07:31:36;;;;;;;;;;;-2.50;99.90;;;;;;4947427;28;19930;-70
2022/12/09 07:34:03;;;;;;;;;;;-2.40;99.90;;;;;;4946070;28;20160;-70
2022/12/09 07:36:29;;;;;;;;;;;-2.30;99.90;;;;;;4951108;28;19926;-71
2022/12/09 07:39:03;;;;;;;;;;;-2.20;99.90;;;;;;4934247;28;19929;-71
2022/12/09 07:41:29;;;;;;;;;;;-2.10;99.90;;;;;;4947766;28;19922;-71
2022/12/09 07:43:54;;;;;;;;;;;-2.10;99.90;;;;;;4957854;28;20434;-70
2022/12/09 07:46:21;;;;;;;;;;;-2.00;99.90;;;;;;4945652;28;19926;-70
2022/12/09 07:48:46;;;;;;;;;;;-2.00;99.90;;;;;;4954131;28;20073;-70
2022/12/09 07:51:12;;;;;;;;;;;-1.90;99.90;;;;;;4951499;28;20462;-70
2022/12/09 07:53:39;;;;;;;;;;;-1.90;99.90;;;;;;4943307;28;19930;-72
2022/12/09 07:56:10;;;;;;;;;;;-1.80;99.90;;;;;;4956584;28;20417;-73
2022/12/09 07:58:36;;;;;;;;;;;-1.80;99.90;;;;;;4955103;28;20450;-72
2022/12/09 08:01:06;;;;;;;;;;;-1.70;99.90;;;;;;4938872;28;20314;-73
2022/12/09 08:03:31;;;;;;;;;;;-1.70;99.90;;;;;;4941662;28;20024;-72
2022/12/09 08:05:57;;;;;;;;;;;-1.70;99.90;;;;;;4952479;28;19997;-73
2022/12/09 08:08:23;;;;;;;;;;;-1.60;99.90;;;;;;4956644;28;19933;-73
2022/12/09 08:10:50;;;;;;;;;;;-1.60;99.90;;;;;;4956331;28;20369;-72
2022/12/09 08:13:19;;;;;;;;;;;-1.50;99.90;;;;;;4949126;28;20381;-72
2022/12/09 08:15:45;;;;;;;;;;;-1.50;99.90;;;;;;4937388;28;20375;-73
2022/12/09 08:18:11;;;;;;;;;;;-1.50;99.90;;;;;;4948534;28;19964;-72
2022/12/09 08:20:36;;;;;;;;;;;-1.40;99.90;;;;;;4940609;28;19922;-72
2022/12/09 08:23:03;;;;;;;;;;;-1.40;99.90;;;;;;4952582;28;19985;-72
2022/12/09 08:25:29;;;;;;;;;;;-1.40;99.90;;;;;;4962223;28;19933;-73
2022/12/09 08:27:54;;;;;;;;;;;-1.30;99.90;;;;;;4939089;28;19922;-72
2022/12/09 08:30:20;;;;;;;;;;;-1.30;99.90;;;;;;4960772;28;19999;-73
2022/12/09 08:32:47;;;;;;;;;;;-1.30;99.90;;;;;;4951567;28;19929;-73
2022/12/09 08:35:13;;;;;;;;;;;-1.20;99.90;;;;;;4966809;28;19932;-72
2022/12/09 08:37:40;;;;;;;;;;;-1.20;99.90;;;;;;4941101;28;19926;-73
2022/12/09 08:40:06;;;;;;;;;;;-1.10;99.90;;;;;;4942991;28;19934;-73
2022/12/09 08:42:31;;;;;;;;;;;-1.10;99.90;;;;;;4933694;29;19927;-73
2022/12/09 08:45:00;;;;;;;;;;;-1.10;99.90;;;;;;4956233;28;19933;-72
2022/12/09 08:47:26;;;;;;;;;;;-1.10;99.90;;;;;;4962712;28;19926;-73
2022/12/09 08:49:52;;;;;;;;;;;-1.00;99.90;;;;;;4943660;28;19958;-72
2022/12/09 08:52:18;;;;;;;;;;;-1.00;99.90;;;;;;4957044;28;20424;-72
2022/12/09 08:54:47;;;;;;;;;;;-1.00;99.90;;;;;;4956164;28;19933;-73
2022/12/09 08:57:12;;;;;;;;;;;-1.00;99.90;;;;;;4936024;28;19926;-73
2022/12/09 08:59:38;;;;;;;;;;;-1.00;99.90;;;;;;4938467;29;19933;-73
2022/12/09 09:02:03;;;;;;;;;;;-1.00;99.90;;;;;;4951605;28;19926;-73
2022/12/09 09:04:30;;;;;;;;;;;-1.00;99.90;;;;;;4939121;28;19981;-73
2022/12/09 09:06:56;;;;;;;;;;;-1.00;99.90;;;;;;4954848;28;19982;-73
2022/12/09 09:09:21;;;;;;;;;;;-0.90;99.90;;;;;;4960132;28;20223;-73
2022/12/09 09:11:47;;;;;;;;;;;-0.90;99.90;;;;;;4954079;28;20395;-73
2022/12/09 09:14:13;;;;;;;;;;;-0.90;99.90;;;;;;4954805;28;19933;-72
2022/12/09 09:16:39;;;;;;;;;;;-0.90;99.90;;;;;;4939010;28;19930;-71
2022/12/09 09:19:05;;;;;;;;;;;-0.90;99.90;;;;;;4959727;28;20064;-71
2022/12/09 09:21:31;;;;;;;;;;;-0.90;99.90;;;;;;4960382;28;20037;-71
2022/12/09 09:23:56;;;;;;;;;;;-0.90;99.90;;;;;;4965571;28;19930;-71
2022/12/09 09:26:24;;;;;;;;;;;-0.90;99.90;;;;;;4955411;28;20478;-71
2022/12/09 09:28:50;;;;;;;;;;;-0.90;99.90;;;;;;4960585;28;20386;-71
2022/12/09 09:31:17;;;;;;;;;;;-0.90;99.90;;;;;;4953835;28;19933;-71
2022/12/09 09:33:42;;;;;;;;;;;-0.90;99.90;;;;;;4961657;28;19965;-71
2022/12/09 09:36:12;;;;;;;;;;;-0.90;99.90;;;;;;4949020;28;19985;-71
2022/12/09 09:38:38;;;;;;;;;;;-0.90;99.90;;;;;;4960064;28;19937;-71
2022/12/09 09:41:20;;;;;;;;;;;-0.90;99.90;;;;;;4944490;28;19926;-71
2022/12/09 09:43:46;;;;;;;;;;;-0.80;99.90;;;;;;4952109;28;20334;-71
2022/12/09 09:46:31;;;;;;;;;;;-0.80;99.90;;;;;;4957851;28;19926;-71
2022/12/09 09:48:58;;;;;;;;;;;-0.80;99.90;;;;;;4926662;28;19922;-71
2022/12/09 09:51:24;;;;;;;;;;;-0.80;99.90;;;;;;4959820;28;20011;-71
2022/12/09 09:53:51;;;;;;;;;;;-0.80;99.90;;;;;;4956648;28;19989;-71
2022/12/09 09:56:23;;;;;;;;;;;-0.80;99.90;;;;;;4964625;28;19969;-71
2022/12/09 09:58:54;;;;;;;;;;;-0.80;99.90;;;;;;4938865;28;19936;-71
2022/12/09 10:01:22;;;;;;;;;;;-0.80;99.90;;;;;;4970966;28;19973;-71
2022/12/09 10:03:54;;;;;;;;;;;-0.80;99.90;;;;;;4945109;28;19934;-71
2022/12/09 10:06:20;;;;;;;;;;;-0.80;99.90;;;;;;4943174;28;19932;-71
2022/12/09 10:08:45;;;;;;;;;;;-0.80;99.90;;;;;;4947447;28;19923;-71
2022/12/09 10:11:21;;;;;;;;;;;-0.70;99.90;;;;;;4931151;28;19926;-71
2022/12/09 10:13:46;;;;;;;;;;;-0.70;99.90;;;;;;4955650;28;20429;-71
2022/12/09 10:16:24;;;;;;;;;;;-0.70;99.90;;;;;;4956440;28;20037;-71
2022/12/09 10:18:53;;;;;;;;;;;-0.70;99.90;;;;;;4963602;28;20046;-71
2022/12/09 10:21:19;;;;;;;;;;;-0.70;99.90;;;;;;4949175;28;20354;-71
2022/12/09 10:23:45;;;;;;;;;;;-0.60;99.90;;;;;;4957065;28;19933;-71
2022/12/09 10:26:14;;;;;;;;;;;-0.60;99.90;;;;;;4940925;28;19927;-71
2022/12/09 10:28:42;;;;;;;;;;;-0.60;99.90;;;;;;4957940;28;20029;-71
2022/12/09 10:31:09;;;;;;;;;;;-0.60;99.90;;;;;;4953959;28;19931;-71
2022/12/09 10:33:35;;;;;;;;;;;-0.60;99.90;;;;;;4949656;28;19953;-71
2022/12/09 10:36:03;;;;;;;;;;;-0.60;99.90;;;;;;4960323;28;20302;-71
2022/12/09 10:38:29;;;;;;;;;;;-0.50;99.90;;;;;;4953463;28;20454;-71
2022/12/09 10:40:58;;;;;;;;;;;-0.50;99.90;;;;;;4954416;28;19980;-71
2022/12/09 10:43:35;;;;;;;;;;;-0.50;99.90;;;;;;4965886;28;20378;-71
2022/12/09 10:46:03;;;;;;;;;;;-0.40;99.90;;;;;;4940246;28;19927;-71
2022/12/09 10:48:31;;;;;;;;;;;-0.40;99.90;;;;;;4944831;28;20303;-71
2022/12/09 10:50:58;;;;;;;;;;;-0.30;99.90;;;;;;4963159;28;19926;-71
2022/12/09 10:53:24;;;;;;;;;;;-0.40;99.90;;;;;;4954572;28;19922;-71
2022/12/09 10:55:51;;;;;;;;;;;-0.30;99.90;;;;;;4963122;28;19941;-71
2022/12/09 10:58:19;;;;;;;;;;;-0.30;99.90;;;;;;4952213;28;19924;-71
2022/12/09 11:00:57;;;;;;;;;;;-0.30;99.90;;;;;;4966406;28;19970;-71
2022/12/09 11:03:30;;;;;;;;;;;-0.20;99.90;;;;;;4957825;28;19980;-71
2022/12/09 11:06:19;;;;;;;;;;;-0.10;99.90;;;;;;4935849;28;20406;-73
2022/12/09 11:08:56;;;;;;;;;;;-0.10;99.90;;;;;;4941941;28;19976;-74
2022/12/09 11:11:37;;;;;;;;;;;0.00;99.90;;;;;;4951727;28;20029;-74
2022/12/09 11:14:03;;;;;;;;;;;0.10;99.90;;;;;;4955860;28;19926;-74
2022/12/09 11:16:29;;;;;;;;;;;0.10;99.90;;;;;;4955150;28;19922;-74
2022/12/09 11:18:55;;;;;;;;;;;0.10;99.90;;;;;;4963060;28;20418;-74
2022/12/09 11:21:28;;;;;;;;;;;0.10;99.90;;;;;;4939296;28;19927;-74
2022/12/09 11:23:54;;;;;;;;;;;0.10;99.90;;;;;;4958458;28;19970;-74
2022/12/09 11:26:24;;;;;;;;;;;0.10;99.90;;;;;;4942747;28;19927;-73
2022/12/09 11:29:04;;;;;;;;;;;0.10;99.90;;;;;;4951839;28;19927;-74
2022/12/09 11:31:32;;;;;;;;;;;0.10;99.90;;;;;;4960491;28;19966;-74
2022/12/09 11:34:02;;;;;;;;;;;0.10;99.90;;;;;;4958131;28;19989;-74
2022/12/09 11:36:31;;;;;;;;;;;0.10;99.90;;;;;;4940107;28;19977;-74
2022/12/09 11:39:09;;;;;;;;;;;0.10;99.90;;;;;;4957157;28;20009;-74
2022/12/09 11:44:25;;;;;;;;;;;0.10;99.90;;;;;;4955144;28;20402;-74
2022/12/09 11:47:20;;;;;;;;;;;0.10;99.90;;;;;;4953871;28;20009;-74
2022/12/09 11:50:12;;;;;;;;;;;0.20;99.90;;;;;;4961280;28;20375;-74
2022/12/09 11:52:37;;;;;;;;;;;0.20;99.90;;;;;;4944826;28;19930;-74
2022/12/09 11:55:12;;;;;;;;;;;0.30;99.90;;;;;;4942584;28;19934;-74
2022/12/09 11:57:37;;;;;;;;;;;0.30;99.90;;;;;;4957856;28;19925;-74
2022/12/09 12:00:12;;;;;;;;;;;0.30;99.90;;;;;;4941095;28;19926;-74
2022/12/09 12:02:41;;;;;;;;;;;0.30;99.90;;;;;;4962751;28;19923;-74
2022/12/09 12:05:20;;;;;;;;;;;0.30;99.90;;;;;;4962220;28;19942;-74
2022/12/09 12:08:10;;;;;;;;;;;0.30;99.90;;;;;;4955669;28;19922;-74
2022/12/09 12:10:44;;;;;;;;;;;0.30;99.90;;;;;;4958111;28;19980;-74
2022/12/09 12:13:48;;;;;;;;;;;0.30;99.90;;;;;;4942916;28;20005;-74
2022/12/09 12:16:19;;;;;;;;;;;0.30;99.90;;;;;;4894276;29;20264;-74
2022/12/09 12:19:08;;;;;;;;;;;0.40;99.90;;;;;;4893569;29;20113;-74
2022/12/09 12:21:36;;;;;;;;;;;0.40;99.90;;;;;;4927637;28;19925;-74
2022/12/09 12:24:08;;;;;;;;;;;0.50;99.90;;;;;;4961023;28;19926;-74
2022/12/09 12:26:39;;;;;;;;;;;0.50;99.90;;;;;;4956826;28;19958;-73
2022/12/09 12:29:23;;;;;;;;;;;0.50;99.90;;;;;;4953586;28;19923;-73
2022/12/09 12:31:59;;;;;;;;;;;0.50;99.90;;;;;;4941729;28;19976;-73
2022/12/09 12:34:43;;;;;;;;;;;0.50;99.90;;;;;;4969621;28;20138;-73
2022/12/09 12:37:15;;;;;;;;;;;0.60;99.90;;;;;;4956222;28;19929;-73
2022/12/09 12:39:40;;;;;;;;;;;0.60;99.90;;;;;;4939189;28;20305;-73
2022/12/09 12:42:18;;;;;;;;;;;0.60;99.90;;;;;;4951234;28;19926;-73
2022/12/09 12:47:45;;;;;;;;;;;0.60;99.90;;;;;;4952689;28;20360;-74
2022/12/09 12:50:23;;;;;;;;;;;0.60;99.90;;;;;;4944723;28;19992;-73
2022/12/09 12:53:07;;;;;;;;;;;0.70;99.90;;;;;;4942685;28;19923;-73
2022/12/09 12:55:42;;;;;;;;;;;0.70;99.90;;;;;;4957155;28;20165;-74
2022/12/09 12:58:11;;;;;;;;;;;0.70;99.90;;;;;;4953449;28;19938;-74
2022/12/09 13:00:43;;;;;;;;;;;0.70;99.90;;;;;;4967988;28;19929;-74
2022/12/09 13:03:09;;;;;;;;;;;0.70;99.90;;;;;;4962746;28;20373;-73
2022/12/09 13:05:41;;;;;;;;;;;0.70;99.90;;;;;;4967007;28;20008;-73
2022/12/09 13:08:18;;;;;;;;;;;0.70;99.90;;;;;;4968122;28;20024;-73
2022/12/09 13:10:50;;;;;;;;;;;0.70;99.90;;;;;;4976977;28;19970;-73
2022/12/09 13:13:19;;;;;;;;;;;0.80;99.90;;;;;;4960330;28;19929;-73
2022/12/09 13:15:47;;;;;;;;;;;0.70;99.90;;;;;;4956152;28;19926;-73
2022/12/09 13:18:25;;;;;;;;;;;0.70;99.90;;;;;;4969126;28;19956;-73
2022/12/09 13:20:52;;;;;;;;;;;0.80;99.90;;;;;;4962011;28;19922;-73
2022/12/09 13:23:36;;;;;;;;;;;0.70;99.90;;;;;;4963114;28;19926;-73
2022/12/09 13:26:19;;;;;;;;;;;0.70;99.90;;;;;;4959115;28;20021;-73
2022/12/09 13:28:56;;;;;;;;;;;0.70;99.90;;;;;;4956454;28;19923;-73
2022/12/09 13:31:29;;;;;;;;;;;0.70;99.90;;;;;;4961421;28;20039;-71
2022/12/09 13:34:14;;;;;;;;;;;0.60;99.90;;;;;;4960714;28;19922;-71
2022/12/09 13:36:40;;;;;;;;;;;0.60;99.90;;;;;;4953615;28;20036;-71
2022/12/09 13:39:10;;;;;;;;;;;0.60;99.90;;;;;;4958688;28;19956;-71
2022/12/09 13:44:24;;;;;;;;;;;0.70;99.90;;;;;;4967710;28;19922;-72
2022/12/09 13:46:49;;;;;;;;;;;0.70;99.90;;;;;;4961358;28;20231;-71
2022/12/09 13:49:15;;;;;;;;;;;0.70;99.90;;;;;;4957887;28;20221;-71
2022/12/09 13:51:50;;;;;;;;;;;0.60;99.90;;;;;;4962902;28;19926;-71
2022/12/09 13:54:17;;;;;;;;;;;0.60;99.90;;;;;;4957918;28;20268;-71
2022/12/09 13:56:43;;;;;;;;;;;0.60;99.90;;;;;;4947309;28;19977;-71
2022/12/09 13:59:08;;;;;;;;;;;0.60;99.90;;;;;;4958292;28;19940;-71
2022/12/09 14:01:53;;;;;;;;;;;0.60;99.90;;;;;;4951605;28;19933;-71
2022/12/09 14:04:19;;;;;;;;;;;0.60;99.90;;;;;;4968486;28;19945;-71
2022/12/09 14:06:45;;;;;;;;;;;0.60;99.90;;;;;;4967052;28;20383;-71
2022/12/09 14:09:26;;;;;;;;;;;0.60;99.90;;;;;;4948141;28;20250;-71
2022/12/09 14:11:55;;;;;;;;;;;0.50;99.90;;;;;;4932326;28;19931;-71
2022/12/09 14:14:24;;;;;;;;;;;0.50;99.90;;;;;;4956148;28;20298;-71
2022/12/09 14:16:49;;;;;;;;;;;0.40;99.90;;;;;;4959584;28;20402;-71
2022/12/09 14:19:24;;;;;;;;;;;0.40;99.90;;;;;;4959143;28;19926;-71
2022/12/09 14:22:14;;;;;;;;;;;0.30;99.90;;;;;;4965113;28;19926;-71
2022/12/09 14:24:41;;;;;;;;;;;0.30;99.90;;;;;;4957886;28;19933;-71
2022/12/09 14:27:14;;;;;;;;;;;0.20;99.90;;;;;;4960832;28;19926;-71
2022/12/09 14:29:58;;;;;;;;;;;0.20;99.90;;;;;;4975449;28;20290;-71
2022/12/09 14:32:35;;;;;;;;;;;0.10;99.90;;;;;;4954414;28;20633;-71
2022/12/09 14:35:10;;;;;;;;;;;0.00;99.90;;;;;;4957286;28;19930;-71
2022/12/09 14:37:50;;;;;;;;;;;-0.10;99.90;;;;;;4956104;28;19926;-71